createdAt,value
2018-08-31T01:31:04.819Z,12.29
2018-08-31T01:31:05.393Z,12.31
2018-08-31T01:31:05.992Z,12.29
2018-08-31T01:31:06.592Z,12.31
2018-08-31T01:31:07.192Z,12.31
2018-08-31T01:31:07.791Z,12.31
2018-08-31T01:31:08.391Z,12.19
2018-08-31T01:31:08.995Z,12.30
2018-08-31T01:32:02.450Z,12.19
2018-08-31T01:32:03.046Z,12.31
2018-08-31T01:32:03.644Z,12.29
2018-08-31T01:32:04.244Z,12.33
2018-08-31T01:32:04.849Z,12.29
2018-08-31T01:32:05.448Z,12.31
2018-08-31T01:32:06.045Z,12.29
2018-08-31T01:32:06.646Z,12.29
2018-08-31T01:33:00.126Z,12.29
2018-08-31T01:33:00.702Z,12.29
2018-08-31T01:33:01.299Z,12.15
2018-08-31T01:33:01.898Z,12.33
2018-08-31T01:33:02.497Z,12.27
2018-08-31T01:33:03.096Z,12.31
2018-08-31T01:33:03.696Z,12.31
2018-08-31T01:33:04.300Z,12.29
2018-08-31T01:33:59.287Z,12.20
2018-08-31T01:33:59.887Z,12.23
2018-08-31T01:34:00.485Z,12.27
2018-08-31T01:34:01.083Z,12.16
2018-08-31T01:34:01.687Z,12.27
2018-08-31T01:34:02.285Z,12.15
2018-08-31T01:34:57.764Z,12.16
2018-08-31T01:34:58.360Z,12.21
2018-08-31T01:34:58.956Z,12.26
2018-08-31T01:34:59.557Z,12.19
2018-08-31T01:35:00.163Z,12.13
2018-08-31T01:35:00.756Z,12.21
2018-08-31T01:35:55.208Z,12.19
2018-08-31T01:35:55.804Z,12.15
2018-08-31T01:35:56.402Z,12.19
2018-08-31T01:35:57.002Z,12.16
2018-08-31T01:35:57.603Z,12.16
2018-08-31T01:35:58.201Z,12.20
2018-08-31T01:35:58.802Z,12.15
2018-08-31T01:36:52.246Z,12.20
2018-08-31T01:36:52.841Z,12.19
2018-08-31T01:36:53.441Z,12.13
2018-08-31T01:36:54.042Z,12.20
2018-08-31T01:36:54.641Z,12.15
2018-08-31T01:36:55.244Z,12.15
2018-08-31T01:36:55.841Z,12.15
2018-08-31T01:36:56.441Z,12.20
2018-08-31T01:37:50.432Z,12.16
2018-08-31T01:37:51.009Z,12.13
2018-08-31T01:37:51.606Z,12.15
2018-08-31T01:37:52.204Z,12.13
2018-08-31T01:37:52.805Z,12.20
2018-08-31T01:37:53.408Z,12.19
2018-08-31T01:37:54.004Z,12.15
2018-08-31T01:38:47.555Z,12.16
2018-08-31T01:38:48.147Z,12.16
2018-08-31T01:38:48.746Z,12.29
2018-08-31T01:38:49.347Z,12.16
2018-08-31T01:38:49.951Z,12.20
2018-08-31T01:38:50.546Z,12.19
2018-08-31T01:38:51.147Z,12.16
2018-08-31T01:38:51.745Z,12.20
2018-08-31T01:39:45.205Z,12.21
2018-08-31T01:39:45.798Z,12.19
2018-08-31T01:39:46.398Z,12.15
2018-08-31T01:39:46.998Z,12.16
2018-08-31T01:39:47.600Z,12.20
2018-08-31T01:39:48.198Z,12.15
2018-08-31T01:39:48.798Z,12.19
2018-08-31T01:39:49.399Z,12.16
2018-08-31T01:40:42.853Z,12.20
2018-08-31T01:40:43.451Z,12.11
2018-08-31T01:40:44.052Z,12.15
2018-08-31T01:40:44.653Z,12.19
2018-08-31T01:40:45.249Z,12.16
2018-08-31T01:40:45.850Z,12.16
2018-08-31T01:40:46.449Z,12.19
2018-08-31T01:40:47.050Z,12.20
2018-08-31T01:41:40.505Z,12.13
2018-08-31T01:41:41.103Z,12.15
2018-08-31T01:41:41.702Z,12.15
2018-08-31T01:41:42.311Z,12.19
2018-08-31T01:41:42.902Z,12.23
2018-08-31T01:41:43.502Z,12.19
2018-08-31T01:41:44.101Z,12.19
2018-08-31T01:41:44.701Z,12.15
2018-08-31T01:42:39.717Z,12.15
2018-08-31T01:42:40.289Z,12.13
2018-08-31T01:42:40.888Z,12.20
2018-08-31T01:42:41.489Z,12.19
2018-08-31T01:42:42.090Z,12.15
2018-08-31T01:42:42.687Z,12.13
2018-08-31T01:42:43.292Z,12.15
2018-08-31T01:43:36.832Z,12.20
2018-08-31T01:43:37.431Z,12.16
2018-08-31T01:43:38.032Z,12.19
2018-08-31T01:43:38.631Z,12.16
2018-08-31T01:43:39.229Z,12.19
2018-08-31T01:43:39.831Z,12.20
2018-08-31T01:43:40.429Z,12.16
2018-08-31T01:43:41.029Z,12.19
2018-08-31T01:44:34.484Z,12.08
2018-08-31T01:44:35.083Z,12.16
2018-08-31T01:44:35.680Z,12.16
2018-08-31T01:44:36.281Z,12.20
2018-08-31T01:44:36.930Z,12.11
2018-08-31T01:44:37.480Z,12.16
2018-08-31T01:44:38.080Z,12.16
2018-08-31T01:44:38.681Z,12.19
2018-08-31T01:45:32.137Z,12.21
2018-08-31T01:45:32.734Z,12.16
2018-08-31T01:45:33.335Z,12.16
2018-08-31T01:45:33.934Z,12.16
2018-08-31T01:45:34.533Z,12.15
2018-08-31T01:45:35.132Z,12.16
2018-08-31T01:45:35.732Z,12.15
2018-08-31T01:45:36.332Z,12.19
2018-08-31T01:46:30.811Z,12.16
2018-08-31T01:46:31.410Z,12.29
2018-08-31T01:46:32.008Z,12.29
2018-08-31T01:46:32.608Z,12.20
2018-08-31T01:46:33.207Z,12.21
2018-08-31T01:46:33.813Z,12.13
2018-08-31T01:46:34.408Z,12.29
2018-08-31T01:46:35.007Z,12.19
2018-08-31T01:47:29.514Z,12.16
2018-08-31T01:47:30.083Z,12.15
2018-08-31T01:47:30.683Z,12.20
2018-08-31T01:47:31.283Z,12.16
2018-08-31T01:47:31.884Z,12.19
2018-08-31T01:47:32.484Z,12.12
2018-08-31T01:47:33.082Z,12.21
2018-08-31T01:47:33.683Z,12.21
2018-08-31T01:48:28.163Z,12.16
2018-08-31T01:48:28.766Z,12.27
2018-08-31T01:48:29.361Z,12.13
2018-08-31T01:48:29.960Z,12.21
2018-08-31T01:48:30.558Z,12.15
2018-08-31T01:48:31.198Z,12.16
2018-08-31T01:48:31.759Z,12.16
2018-08-31T01:48:32.358Z,12.12
2018-08-31T01:49:26.837Z,12.19
2018-08-31T01:49:27.438Z,12.19
2018-08-31T01:49:28.036Z,12.20
2018-08-31T01:49:28.636Z,12.26
2018-08-31T01:49:29.238Z,12.16
2018-08-31T01:49:29.835Z,12.30
2018-08-31T01:49:30.435Z,12.15
2018-08-31T01:49:31.035Z,12.23
2018-08-31T01:50:25.516Z,12.26
2018-08-31T01:50:26.111Z,12.20
2018-08-31T01:50:26.711Z,12.30
2018-08-31T01:50:27.310Z,12.30
2018-08-31T01:50:27.910Z,12.27
2018-08-31T01:50:28.511Z,12.29
2018-08-31T01:50:29.115Z,12.31
2018-08-31T01:50:29.713Z,12.29
2018-08-31T01:51:23.166Z,12.29
2018-08-31T01:51:23.764Z,12.33
2018-08-31T01:51:24.364Z,12.20
2018-08-31T01:51:24.964Z,12.21
2018-08-31T01:51:25.568Z,12.27
2018-08-31T01:51:26.165Z,12.30
2018-08-31T01:51:26.763Z,12.29
2018-08-31T01:51:27.364Z,12.31
2018-08-31T01:52:21.877Z,12.30
2018-08-31T01:52:22.438Z,12.27
2018-08-31T01:52:23.040Z,12.27
2018-08-31T01:52:23.638Z,12.30
2018-08-31T01:52:24.238Z,12.34
2018-08-31T01:52:24.838Z,12.30
2018-08-31T01:52:25.438Z,12.29
2018-08-31T01:52:26.040Z,12.29
2018-08-31T01:53:20.517Z,12.31
2018-08-31T01:53:21.114Z,12.24
2018-08-31T01:53:21.714Z,12.31
2018-08-31T01:53:22.317Z,12.31
2018-08-31T01:53:22.913Z,12.37
2018-08-31T01:53:23.515Z,12.34
2018-08-31T01:53:24.117Z,12.29
2018-08-31T01:53:24.713Z,12.33
2018-08-31T01:54:18.170Z,12.39
2018-08-31T01:54:18.767Z,12.39
2018-08-31T01:54:19.366Z,12.31
2018-08-31T01:54:19.967Z,12.30
2018-08-31T01:54:20.566Z,12.44
2018-08-31T01:54:21.165Z,12.45
2018-08-31T01:54:21.767Z,12.34
2018-08-31T01:54:22.367Z,12.37
2018-08-31T01:55:15.821Z,12.45
2018-08-31T01:55:16.420Z,12.46
2018-08-31T01:55:17.018Z,12.41
2018-08-31T01:55:17.619Z,12.46
2018-08-31T01:55:18.218Z,12.42
2018-08-31T01:55:18.817Z,12.46
2018-08-31T01:55:19.417Z,12.38
2018-08-31T01:55:20.018Z,12.39
2018-08-31T01:56:14.497Z,12.45
2018-08-31T01:56:15.098Z,12.38
2018-08-31T01:56:15.693Z,12.39
2018-08-31T01:56:16.293Z,12.39
2018-08-31T01:56:16.892Z,12.42
2018-08-31T01:56:17.497Z,12.37
2018-08-31T01:56:18.092Z,12.41
2018-08-31T01:56:18.694Z,12.46
2018-08-31T01:57:12.150Z,12.41
2018-08-31T01:57:12.748Z,12.39
2018-08-31T01:57:13.346Z,12.46
2018-08-31T01:57:13.948Z,12.41
2018-08-31T01:57:14.547Z,12.44
2018-08-31T01:57:15.148Z,12.46
2018-08-31T01:57:15.746Z,12.41
2018-08-31T01:57:16.345Z,12.44
2018-08-31T01:58:09.825Z,12.52
2018-08-31T01:58:10.398Z,12.51
2018-08-31T01:58:10.998Z,12.51
2018-08-31T01:58:11.601Z,12.51
2018-08-31T01:58:12.245Z,12.57
2018-08-31T01:58:12.800Z,12.49
2018-08-31T01:58:13.397Z,12.54
2018-08-31T01:58:13.997Z,12.52
2018-08-31T01:59:08.474Z,12.56
2018-08-31T01:59:09.077Z,12.51
2018-08-31T01:59:09.672Z,12.52
2018-08-31T01:59:10.272Z,12.51
2018-08-31T01:59:10.876Z,12.57
2018-08-31T01:59:11.472Z,12.59
2018-08-31T01:59:12.072Z,12.60
2018-08-31T01:59:12.672Z,12.56
2018-08-31T02:00:07.152Z,12.59
2018-08-31T02:00:07.749Z,12.60
2018-08-31T02:00:08.348Z,12.59
2018-08-31T02:00:08.949Z,12.63
2018-08-31T02:00:09.548Z,12.57
2018-08-31T02:00:10.148Z,12.63
2018-08-31T02:00:10.749Z,12.62
2018-08-31T02:00:11.351Z,12.57
2018-08-31T02:01:05.829Z,12.54
2018-08-31T02:01:06.426Z,12.59
2018-08-31T02:01:07.023Z,12.57
2018-08-31T02:01:07.623Z,12.59
2018-08-31T02:01:08.222Z,12.77
2018-08-31T02:01:08.824Z,12.59
2018-08-31T02:01:09.423Z,12.63
2018-08-31T02:01:10.023Z,12.62
2018-08-31T02:02:04.502Z,12.60
2018-08-31T02:02:05.105Z,12.63
2018-08-31T02:02:05.698Z,12.66
2018-08-31T02:02:06.297Z,12.62
2018-08-31T02:02:06.898Z,12.64
2018-08-31T02:02:07.497Z,12.63
2018-08-31T02:02:08.098Z,12.64
2018-08-31T02:02:08.697Z,12.64
2018-08-31T02:03:02.178Z,12.63
2018-08-31T02:03:02.752Z,12.63
2018-08-31T02:03:03.353Z,12.64
2018-08-31T02:03:03.959Z,12.69
2018-08-31T02:03:04.552Z,12.67
2018-08-31T02:03:05.152Z,12.66
2018-08-31T02:03:05.753Z,12.71
2018-08-31T02:03:06.351Z,12.70
2018-08-31T02:03:59.812Z,12.70
2018-08-31T02:04:00.427Z,12.71
2018-08-31T02:04:01.048Z,12.78
2018-08-31T02:04:01.646Z,12.71
2018-08-31T02:04:02.217Z,12.69
2018-08-31T02:04:02.864Z,12.79
2018-08-31T02:04:03.420Z,12.77
2018-08-31T02:04:04.029Z,12.71
2018-08-31T02:04:58.481Z,12.81
2018-08-31T02:04:59.079Z,12.78
2018-08-31T02:04:59.680Z,12.75
2018-08-31T02:05:00.279Z,12.79
2018-08-31T02:05:00.878Z,12.84
2018-08-31T02:05:01.479Z,12.81
2018-08-31T02:05:02.084Z,12.77
2018-08-31T02:05:02.678Z,12.84
2018-08-31T02:05:57.159Z,12.79
2018-08-31T02:05:57.756Z,12.71
2018-08-31T02:05:58.355Z,12.69
2018-08-31T02:05:58.955Z,12.75
2018-08-31T02:05:59.557Z,12.81
2018-08-31T02:06:00.155Z,12.77
2018-08-31T02:06:00.755Z,12.77
2018-08-31T02:06:01.354Z,12.81
2018-08-31T02:06:55.834Z,12.74
2018-08-31T02:06:56.431Z,12.84
2018-08-31T02:06:57.035Z,12.81
2018-08-31T02:06:57.631Z,12.81
2018-08-31T02:06:58.231Z,12.89
2018-08-31T02:06:58.830Z,12.77
2018-08-31T02:06:59.430Z,12.87
2018-08-31T02:07:00.031Z,12.89
2018-08-31T02:07:53.511Z,12.92
2018-08-31T02:07:54.083Z,12.87
2018-08-31T02:07:54.685Z,12.79
2018-08-31T02:07:55.282Z,12.92
2018-08-31T02:07:55.882Z,12.85
2018-08-31T02:07:56.483Z,12.79
2018-08-31T02:07:57.082Z,12.92
2018-08-31T02:07:57.681Z,12.79
2018-08-31T02:08:52.161Z,12.87
2018-08-31T02:08:52.760Z,12.92
2018-08-31T02:08:53.358Z,12.95
2018-08-31T02:08:53.959Z,12.88
2018-08-31T02:08:54.559Z,12.82
2018-08-31T02:08:55.160Z,12.88
2018-08-31T02:08:55.757Z,12.79
2018-08-31T02:08:56.356Z,12.85
2018-08-31T02:09:49.813Z,12.82
2018-08-31T02:09:50.411Z,12.92
2018-08-31T02:09:51.011Z,12.88
2018-08-31T02:09:51.610Z,12.82
2018-08-31T02:09:52.213Z,12.88
2018-08-31T02:09:52.810Z,12.88
2018-08-31T02:09:53.410Z,12.88
2018-08-31T02:09:54.012Z,12.92
2018-08-31T02:10:48.491Z,12.89
2018-08-31T02:10:49.085Z,12.87
2018-08-31T02:10:49.685Z,12.93
2018-08-31T02:10:50.285Z,12.92
2018-08-31T02:10:50.886Z,12.88
2018-08-31T02:10:51.484Z,12.88
2018-08-31T02:10:52.085Z,12.85
2018-08-31T02:10:52.684Z,12.85
2018-08-31T02:11:46.142Z,12.84
2018-08-31T02:11:46.739Z,12.81
2018-08-31T02:11:47.337Z,12.92
2018-08-31T02:11:47.937Z,12.92
2018-08-31T02:11:48.537Z,12.87
2018-08-31T02:11:49.174Z,12.79
2018-08-31T02:11:49.740Z,12.87
2018-08-31T02:11:50.338Z,12.81
2018-08-31T02:12:43.819Z,12.93
2018-08-31T02:12:44.389Z,12.84
2018-08-31T02:12:44.988Z,12.79
2018-08-31T02:12:45.595Z,12.84
2018-08-31T02:12:46.188Z,12.89
2018-08-31T02:12:46.789Z,12.88
2018-08-31T02:12:47.390Z,12.81
2018-08-31T02:12:47.989Z,12.92
2018-08-31T02:13:41.445Z,12.88
2018-08-31T02:13:42.041Z,12.93
2018-08-31T02:13:42.642Z,12.93
2018-08-31T02:13:43.243Z,12.92
2018-08-31T02:13:43.842Z,12.89
2018-08-31T02:13:44.441Z,12.84
2018-08-31T02:13:45.042Z,12.87
2018-08-31T02:13:45.644Z,12.89
2018-08-31T02:14:40.124Z,12.88
2018-08-31T02:14:40.716Z,12.82
2018-08-31T02:14:41.315Z,12.85
2018-08-31T02:14:41.915Z,12.93
2018-08-31T02:14:42.516Z,12.85
2018-08-31T02:14:43.115Z,12.88
2018-08-31T02:14:43.716Z,12.84
2018-08-31T02:14:44.314Z,12.92
2018-08-31T02:15:38.797Z,12.78
2018-08-31T02:15:39.391Z,12.78
2018-08-31T02:15:39.995Z,12.87
2018-08-31T02:15:40.592Z,12.89
2018-08-31T02:15:41.190Z,12.85
2018-08-31T02:15:41.791Z,12.87
2018-08-31T02:15:42.391Z,12.82
2018-08-31T02:15:42.990Z,12.85
2018-08-31T02:16:37.471Z,12.88
2018-08-31T02:16:38.068Z,12.78
2018-08-31T02:16:38.668Z,12.89
2018-08-31T02:16:39.270Z,12.88
2018-08-31T02:16:39.874Z,12.88
2018-08-31T02:16:40.468Z,12.92
2018-08-31T02:16:41.067Z,12.84
2018-08-31T02:16:41.667Z,12.82
2018-08-31T02:17:36.176Z,12.78
2018-08-31T02:17:36.743Z,12.88
2018-08-31T02:17:37.345Z,12.85
2018-08-31T02:17:37.946Z,12.84
2018-08-31T02:17:38.544Z,12.85
2018-08-31T02:17:39.147Z,12.78
2018-08-31T02:17:39.743Z,12.84
2018-08-31T02:17:40.343Z,12.77
2018-08-31T02:18:34.821Z,12.77
2018-08-31T02:18:35.420Z,12.77
2018-08-31T02:18:36.019Z,12.77
2018-08-31T02:18:36.619Z,12.71
2018-08-31T02:18:37.219Z,12.81
2018-08-31T02:18:37.818Z,12.74
2018-08-31T02:18:38.418Z,12.71
2018-08-31T02:18:39.019Z,12.81
2018-08-31T02:19:33.499Z,12.74
2018-08-31T02:19:34.095Z,12.77
2018-08-31T02:19:34.696Z,12.79
2018-08-31T02:19:35.298Z,12.74
2018-08-31T02:19:35.894Z,12.79
2018-08-31T02:19:36.494Z,12.71
2018-08-31T02:19:37.094Z,12.84
2018-08-31T02:19:37.695Z,12.81
2018-08-31T02:20:31.150Z,12.82
2018-08-31T02:20:31.748Z,12.78
2018-08-31T02:20:32.348Z,12.74
2018-08-31T02:20:32.949Z,12.78
2018-08-31T02:20:33.548Z,12.85
2018-08-31T02:20:34.149Z,12.78
2018-08-31T02:20:34.749Z,12.75
2018-08-31T02:20:35.348Z,12.79
2018-08-31T02:21:29.825Z,12.75
2018-08-31T02:21:30.422Z,12.77
2018-08-31T02:21:31.022Z,12.71
2018-08-31T02:21:31.623Z,12.71
2018-08-31T02:21:32.221Z,12.77
2018-08-31T02:21:32.820Z,12.70
2018-08-31T02:21:33.425Z,12.74
2018-08-31T02:21:34.023Z,12.78
2018-08-31T02:22:28.500Z,12.70
2018-08-31T02:22:29.100Z,12.70
2018-08-31T02:22:29.701Z,12.75
2018-08-31T02:22:30.299Z,12.70
2018-08-31T02:22:30.897Z,12.71
2018-08-31T02:22:31.498Z,12.75
2018-08-31T02:22:32.105Z,12.70
2018-08-31T02:22:32.696Z,12.75
2018-08-31T02:23:27.200Z,12.71
2018-08-31T02:23:27.773Z,12.66
2018-08-31T02:23:28.374Z,12.71
2018-08-31T02:23:28.974Z,12.71
2018-08-31T02:23:29.574Z,12.70
2018-08-31T02:23:30.172Z,12.75
2018-08-31T02:23:30.772Z,12.64
2018-08-31T02:23:31.373Z,12.81
2018-08-31T02:24:25.856Z,12.67
2018-08-31T02:24:26.454Z,12.75
2018-08-31T02:24:27.051Z,12.71
2018-08-31T02:24:27.649Z,12.71
2018-08-31T02:24:28.249Z,12.71
2018-08-31T02:24:28.849Z,12.71
2018-08-31T02:24:29.449Z,12.74
2018-08-31T02:24:30.049Z,12.71
2018-08-31T02:25:24.528Z,12.75
2018-08-31T02:25:25.124Z,12.75
2018-08-31T02:25:25.728Z,12.69
2018-08-31T02:25:26.324Z,12.69
2018-08-31T02:25:26.924Z,12.77
2018-08-31T02:25:27.524Z,12.70
2018-08-31T02:25:28.123Z,12.70
2018-08-31T02:25:28.724Z,12.71
2018-08-31T02:26:23.204Z,12.67
2018-08-31T02:26:23.801Z,12.69
2018-08-31T02:26:24.402Z,12.67
2018-08-31T02:26:25.000Z,12.67
2018-08-31T02:26:25.601Z,12.70
2018-08-31T02:26:26.201Z,12.74
2018-08-31T02:26:26.800Z,12.67
2018-08-31T02:26:27.401Z,12.67
2018-08-31T02:27:20.858Z,12.70
2018-08-31T02:27:21.455Z,12.78
2018-08-31T02:27:22.052Z,12.67
2018-08-31T02:27:22.652Z,12.74
2018-08-31T02:27:23.253Z,12.70
2018-08-31T02:27:23.853Z,12.74
2018-08-31T02:27:24.452Z,12.70
2018-08-31T02:27:25.052Z,12.74
2018-08-31T02:28:19.555Z,12.67
2018-08-31T02:28:20.127Z,12.69
2018-08-31T02:28:20.729Z,12.74
2018-08-31T02:28:21.329Z,12.70
2018-08-31T02:28:21.927Z,12.70
2018-08-31T02:28:22.527Z,12.71
2018-08-31T02:28:23.129Z,12.71
2018-08-31T02:28:23.727Z,12.70
2018-08-31T02:29:18.208Z,12.70
2018-08-31T02:29:18.804Z,12.71
2018-08-31T02:29:19.405Z,12.70
2018-08-31T02:29:20.005Z,12.64
2018-08-31T02:29:20.605Z,12.70
2018-08-31T02:29:21.204Z,12.70
2018-08-31T02:29:21.804Z,12.66
2018-08-31T02:29:22.404Z,12.70
2018-08-31T02:30:16.883Z,12.70
2018-08-31T02:30:17.481Z,12.70
2018-08-31T02:30:18.082Z,12.69
2018-08-31T02:30:18.682Z,12.67
2018-08-31T02:30:19.279Z,12.69
2018-08-31T02:30:19.880Z,12.67
2018-08-31T02:30:20.481Z,12.66
2018-08-31T02:30:21.080Z,12.70
2018-08-31T02:31:15.563Z,12.67
2018-08-31T02:31:16.164Z,12.67
2018-08-31T02:31:16.758Z,12.67
2018-08-31T02:31:17.358Z,12.71
2018-08-31T02:31:17.958Z,12.67
2018-08-31T02:31:18.558Z,12.70
2018-08-31T02:31:19.158Z,12.71
2018-08-31T02:31:19.758Z,12.74
2018-08-31T02:32:13.215Z,12.70
2018-08-31T02:32:13.808Z,12.70
2018-08-31T02:32:14.406Z,12.71
2018-08-31T02:32:15.007Z,12.67
2018-08-31T02:32:15.608Z,12.70
2018-08-31T02:32:16.208Z,12.74
2018-08-31T02:32:16.810Z,12.69
2018-08-31T02:32:17.409Z,12.70
2018-08-31T02:33:11.911Z,12.70
2018-08-31T02:33:12.483Z,12.78
2018-08-31T02:33:13.086Z,12.74
2018-08-31T02:33:13.683Z,12.66
2018-08-31T02:33:14.282Z,12.70
2018-08-31T02:33:14.884Z,12.75
2018-08-31T02:33:15.482Z,12.71
2018-08-31T02:33:16.088Z,12.71
2018-08-31T02:34:09.540Z,12.70
2018-08-31T02:34:10.136Z,12.74
2018-08-31T02:34:10.733Z,12.70
2018-08-31T02:34:11.335Z,12.70
2018-08-31T02:34:11.935Z,12.71
2018-08-31T02:34:12.534Z,12.71
2018-08-31T02:34:13.135Z,12.70
2018-08-31T02:34:13.738Z,12.70
2018-08-31T02:35:08.218Z,12.70
2018-08-31T02:35:08.810Z,12.69
2018-08-31T02:35:09.411Z,12.71
2018-08-31T02:35:10.014Z,12.74
2018-08-31T02:35:10.610Z,12.71
2018-08-31T02:35:11.210Z,12.67
2018-08-31T02:35:11.809Z,12.70
2018-08-31T02:35:12.410Z,12.75
2018-08-31T02:36:06.889Z,12.74
2018-08-31T02:36:07.487Z,12.79
2018-08-31T02:36:08.093Z,12.77
2018-08-31T02:36:08.685Z,12.77
2018-08-31T02:36:09.284Z,12.74
2018-08-31T02:36:09.884Z,12.78
2018-08-31T02:36:10.484Z,12.69
2018-08-31T02:36:11.083Z,12.74
2018-08-31T02:37:04.542Z,12.71
2018-08-31T02:37:05.139Z,12.78
2018-08-31T02:37:05.739Z,12.75
2018-08-31T02:37:06.343Z,12.82
2018-08-31T02:37:06.944Z,12.79
2018-08-31T02:37:07.538Z,12.79
2018-08-31T02:37:08.137Z,12.75
2018-08-31T02:37:08.737Z,12.74
2018-08-31T02:38:02.219Z,12.71
2018-08-31T02:38:02.790Z,12.79
2018-08-31T02:38:03.390Z,12.69
2018-08-31T02:38:03.992Z,12.79
2018-08-31T02:38:04.589Z,12.75
2018-08-31T02:38:05.189Z,12.74
2018-08-31T02:38:05.792Z,12.75
2018-08-31T02:38:06.394Z,12.71
2018-08-31T02:38:59.844Z,12.74
2018-08-31T02:39:00.476Z,12.77
2018-08-31T02:39:01.059Z,12.69
2018-08-31T02:39:01.675Z,12.79
2018-08-31T02:39:02.287Z,12.79
2018-08-31T02:39:02.869Z,12.69
2018-08-31T02:39:03.459Z,12.75
2018-08-31T02:39:04.051Z,12.74
2018-08-31T02:39:57.495Z,12.74
2018-08-31T02:39:58.094Z,12.70
2018-08-31T02:39:58.695Z,12.81
2018-08-31T02:39:59.293Z,12.71
2018-08-31T02:39:59.897Z,12.75
2018-08-31T02:40:00.509Z,12.74
2018-08-31T02:40:01.094Z,12.70
2018-08-31T02:40:01.703Z,12.75
2018-08-31T02:40:56.170Z,12.70
2018-08-31T02:40:56.769Z,12.75
2018-08-31T02:40:57.369Z,12.70
2018-08-31T02:40:57.973Z,12.71
2018-08-31T02:40:58.569Z,12.81
2018-08-31T02:40:59.169Z,12.74
2018-08-31T02:40:59.769Z,12.75
2018-08-31T02:41:00.369Z,12.78
2018-08-31T02:41:53.823Z,12.67
2018-08-31T02:41:54.421Z,12.74
2018-08-31T02:41:55.021Z,12.77
2018-08-31T02:41:55.627Z,12.71
2018-08-31T02:41:56.220Z,12.75
2018-08-31T02:41:56.821Z,12.71
2018-08-31T02:41:57.421Z,12.70
2018-08-31T02:41:58.021Z,12.71
2018-08-31T02:42:52.523Z,12.74
2018-08-31T02:42:53.096Z,12.77
2018-08-31T02:42:53.695Z,12.66
2018-08-31T02:42:54.299Z,12.79
2018-08-31T02:42:54.896Z,12.74
2018-08-31T02:42:55.496Z,12.75
2018-08-31T02:42:56.098Z,12.74
2018-08-31T02:42:56.699Z,12.71
2018-08-31T02:43:50.153Z,12.67
2018-08-31T02:43:50.749Z,12.70
2018-08-31T02:43:51.350Z,12.70
2018-08-31T02:43:51.950Z,12.71
2018-08-31T02:43:52.547Z,12.75
2018-08-31T02:43:53.148Z,12.71
2018-08-31T02:43:53.749Z,12.71
2018-08-31T02:43:54.350Z,12.71
2018-08-31T02:44:48.826Z,12.70
2018-08-31T02:44:49.423Z,12.67
2018-08-31T02:44:50.025Z,12.69
2018-08-31T02:44:50.623Z,12.71
2018-08-31T02:44:51.222Z,12.67
2018-08-31T02:44:51.825Z,12.69
2018-08-31T02:44:52.423Z,12.70
2018-08-31T02:44:53.024Z,12.70
2018-08-31T02:45:46.482Z,12.67
2018-08-31T02:45:47.080Z,12.67
2018-08-31T02:45:47.677Z,12.67
2018-08-31T02:45:48.279Z,12.69
2018-08-31T02:45:48.876Z,12.74
2018-08-31T02:45:49.476Z,12.69
2018-08-31T02:45:50.076Z,12.64
2018-08-31T02:45:50.675Z,12.71
2018-08-31T02:46:44.131Z,12.69
2018-08-31T02:46:44.731Z,12.67
2018-08-31T02:46:45.327Z,12.70
2018-08-31T02:46:45.929Z,12.70
2018-08-31T02:46:46.528Z,12.69
2018-08-31T02:46:47.126Z,12.64
2018-08-31T02:46:47.726Z,12.69
2018-08-31T02:46:48.326Z,12.67
2018-08-31T02:47:41.783Z,12.66
2018-08-31T02:47:42.380Z,12.70
2018-08-31T02:47:42.980Z,12.70
2018-08-31T02:47:43.582Z,12.67
2018-08-31T02:47:44.180Z,12.67
2018-08-31T02:47:44.780Z,12.69
2018-08-31T02:47:45.379Z,12.69
2018-08-31T02:47:45.980Z,12.70
2018-08-31T02:48:39.456Z,12.59
2018-08-31T02:48:40.032Z,12.64
2018-08-31T02:48:40.630Z,12.70
2018-08-31T02:48:41.231Z,12.60
2018-08-31T02:48:41.835Z,12.59
2018-08-31T02:48:42.430Z,12.59
2018-08-31T02:48:43.031Z,12.62
2018-08-31T02:48:43.630Z,12.70
2018-08-31T02:49:38.111Z,12.62
2018-08-31T02:49:38.707Z,12.64
2018-08-31T02:49:39.312Z,12.62
2018-08-31T02:49:39.907Z,12.64
2018-08-31T02:49:40.509Z,12.64
2018-08-31T02:49:41.106Z,12.69
2018-08-31T02:49:41.705Z,12.52
2018-08-31T02:49:42.305Z,12.60
2018-08-31T02:50:35.760Z,12.62
2018-08-31T02:50:36.360Z,12.67
2018-08-31T02:50:36.958Z,12.64
2018-08-31T02:50:37.557Z,12.62
2018-08-31T02:50:38.158Z,12.59
2018-08-31T02:50:38.762Z,12.63
2018-08-31T02:50:39.360Z,12.62
2018-08-31T02:50:39.956Z,12.64
2018-08-31T02:51:34.436Z,12.60
2018-08-31T02:51:35.034Z,12.60
2018-08-31T02:51:35.633Z,12.62
2018-08-31T02:51:36.234Z,12.62
2018-08-31T02:51:36.834Z,12.63
2018-08-31T02:51:37.436Z,12.52
2018-08-31T02:51:38.034Z,12.64
2018-08-31T02:51:38.633Z,12.63
2018-08-31T02:52:32.087Z,12.54
2018-08-31T02:52:32.686Z,12.63
2018-08-31T02:52:33.286Z,12.63
2018-08-31T02:52:33.888Z,12.63
2018-08-31T02:52:34.486Z,12.62
2018-08-31T02:52:35.085Z,12.57
2018-08-31T02:52:35.685Z,12.57
2018-08-31T02:52:36.286Z,12.62
2018-08-31T02:53:30.787Z,12.56
2018-08-31T02:53:31.361Z,12.63
2018-08-31T02:53:31.961Z,12.59
2018-08-31T02:53:32.566Z,12.57
2018-08-31T02:53:33.159Z,12.54
2018-08-31T02:53:33.762Z,12.63
2018-08-31T02:53:34.362Z,12.69
2018-08-31T02:53:34.960Z,12.57
2018-08-31T02:54:28.418Z,12.70
2018-08-31T02:54:29.015Z,12.62
2018-08-31T02:54:29.613Z,12.66
2018-08-31T02:54:30.212Z,12.71
2018-08-31T02:54:30.813Z,12.57
2018-08-31T02:54:31.412Z,12.62
2018-08-31T02:54:32.012Z,12.63
2018-08-31T02:54:32.613Z,12.60
2018-08-31T02:55:27.089Z,12.67
2018-08-31T02:55:27.690Z,12.69
2018-08-31T02:55:28.288Z,12.59
2018-08-31T02:55:28.894Z,12.56
2018-08-31T02:55:29.487Z,12.56
2018-08-31T02:55:30.090Z,12.57
2018-08-31T02:55:30.690Z,12.57
2018-08-31T02:55:31.287Z,12.69
2018-08-31T02:56:25.768Z,12.60
2018-08-31T02:56:26.367Z,12.57
2018-08-31T02:56:26.963Z,12.57
2018-08-31T02:56:27.568Z,12.62
2018-08-31T02:56:28.164Z,12.57
2018-08-31T02:56:28.764Z,12.71
2018-08-31T02:56:29.364Z,12.59
2018-08-31T02:56:29.965Z,12.56
2018-08-31T02:57:23.420Z,12.57
2018-08-31T02:57:24.018Z,12.69
2018-08-31T02:57:24.618Z,12.67
2018-08-31T02:57:25.219Z,12.62
2018-08-31T02:57:25.816Z,12.59
2018-08-31T02:57:26.417Z,12.62
2018-08-31T02:57:27.019Z,12.62
2018-08-31T02:57:27.616Z,12.66
2018-08-31T02:58:22.119Z,12.57
2018-08-31T02:58:22.692Z,12.66
2018-08-31T02:58:23.291Z,12.59
2018-08-31T02:58:23.895Z,12.54
2018-08-31T02:58:24.494Z,12.57
2018-08-31T02:58:25.096Z,12.60
2018-08-31T02:58:25.690Z,12.56
2018-08-31T02:58:26.301Z,12.56
2018-08-31T02:59:19.746Z,12.66
2018-08-31T02:59:20.344Z,12.56
2018-08-31T02:59:20.942Z,12.69
2018-08-31T02:59:21.544Z,12.62
2018-08-31T02:59:22.144Z,12.62
2018-08-31T02:59:22.743Z,12.59
2018-08-31T02:59:23.343Z,12.62
2018-08-31T02:59:23.942Z,12.57
2018-08-31T03:00:18.422Z,12.56
2018-08-31T03:00:19.019Z,12.59
2018-08-31T03:00:19.619Z,12.70
2018-08-31T03:00:20.223Z,12.66
2018-08-31T03:00:20.818Z,12.56
2018-08-31T03:00:21.417Z,12.66
2018-08-31T03:00:22.020Z,12.56
2018-08-31T03:00:22.619Z,12.57
2018-08-31T03:01:16.078Z,12.52
2018-08-31T03:01:16.674Z,12.57
2018-08-31T03:01:17.275Z,12.59
2018-08-31T03:01:17.869Z,12.69
2018-08-31T03:01:18.470Z,12.66
2018-08-31T03:01:19.070Z,12.62
2018-08-31T03:01:19.670Z,12.79
2018-08-31T03:01:20.269Z,12.57
2018-08-31T03:02:13.725Z,12.69
2018-08-31T03:02:14.324Z,12.62
2018-08-31T03:02:14.923Z,12.60
2018-08-31T03:02:15.527Z,12.63
2018-08-31T03:02:16.123Z,12.57
2018-08-31T03:02:16.722Z,12.59
2018-08-31T03:02:17.322Z,12.57
2018-08-31T03:02:17.923Z,12.56
2018-08-31T03:03:12.425Z,12.62
2018-08-31T03:03:12.997Z,12.60
2018-08-31T03:03:13.598Z,12.56
2018-08-31T03:03:14.204Z,12.52
2018-08-31T03:03:14.798Z,12.71
2018-08-31T03:03:15.397Z,12.66
2018-08-31T03:03:15.998Z,12.70
2018-08-31T03:03:16.597Z,12.71
2018-08-31T03:04:10.053Z,12.56
2018-08-31T03:04:10.652Z,12.74
2018-08-31T03:04:11.250Z,12.77
2018-08-31T03:04:11.853Z,12.54
2018-08-31T03:04:12.450Z,12.71
2018-08-31T03:04:13.055Z,12.77
2018-08-31T03:04:13.648Z,12.60
2018-08-31T03:04:14.250Z,12.59
2018-08-31T03:05:07.705Z,12.74
2018-08-31T03:05:08.301Z,12.59
2018-08-31T03:05:08.901Z,12.70
2018-08-31T03:05:09.503Z,12.74